Time;durP1;ratioP1;P1;durP2;ratioP2;P2;SDS_P1;SDS_P2;PMS_P1;PMS_P2;Temp;Humidity;BMP_temperature;BMP_pressure;BME280_temperature;BME280_humidity;BME280_pressure;Samples;Min_cycle;Max_cycle;Signal;HPM_P1;HPM_P2
2023/11/09 00:01:44;;;;;;;1.27;1.17;;;10.10;99.90;;;;;;5064906;28;20127;-70
2023/11/09 00:04:10;;;;;;;1.35;1.05;;;10.10;99.90;;;;;;5064804;28;20048;-70
2023/11/09 00:06:35;;;;;;;1.05;0.80;;;10.20;99.90;;;;;;5069077;28;20403;-70
2023/11/09 00:09:01;;;;;;;1.40;1.30;;;10.30;99.90;;;;;;5068708;28;20154;-70
2023/11/09 00:11:27;;;;;;;1.52;1.00;;;10.10;99.90;;;;;;5067149;28;20086;-70
2023/11/09 00:13:52;;;;;;;2.08;1.10;;;10.10;99.90;;;;;;5070364;28;20093;-70
2023/11/09 00:16:18;;;;;;;0.80;0.80;;;10.10;99.90;;;;;;5071324;28;20041;-70
2023/11/09 00:18:44;;;;;;;1.83;1.00;;;10.10;99.90;;;;;;5096643;28;20039;-70
2023/11/09 00:21:09;;;;;;;1.50;0.95;;;10.20;99.90;;;;;;5100873;28;20044;-70
2023/11/09 00:23:35;;;;;;;1.40;0.82;;;10.10;99.90;;;;;;5072335;28;20051;-70
2023/11/09 00:26:01;;;;;;;1.58;0.90;;;10.10;99.90;;;;;;5072050;28;20037;-70
2023/11/09 00:28:27;;;;;;;1.17;1.00;;;10.10;99.90;;;;;;5067791;28;20051;-70
2023/11/09 00:30:53;;;;;;;1.60;1.00;;;10.10;99.90;;;;;;5071470;28;20048;-70
2023/11/09 00:33:18;;;;;;;1.95;1.10;;;10.20;99.90;;;;;;5070640;28;21263;-70
2023/11/09 00:35:46;;;;;;;1.83;1.00;;;10.10;99.90;;;;;;5069741;28;20395;-70
2023/11/09 00:38:15;;;;;;;0.70;0.60;;;10.10;99.90;;;;;;5069712;28;20033;-70
2023/11/09 00:40:42;;;;;;;1.23;0.90;;;10.10;99.90;;;;;;5070130;28;20067;-70
2023/11/09 00:43:07;;;;;;;0.90;0.73;;;10.10;99.90;;;;;;5069223;28;20040;-70
2023/11/09 00:45:34;;;;;;;1.05;0.93;;;10.10;99.90;;;;;;5069554;28;20052;-70
2023/11/09 00:48:02;;;;;;;3.28;1.20;;;10.10;99.90;;;;;;5068228;28;20483;-70
2023/11/09 00:50:28;;;;;;;1.70;0.70;;;10.20;99.90;;;;;;5068629;28;20121;-70
2023/11/09 00:52:54;;;;;;;0.75;0.70;;;10.10;99.90;;;;;;5102321;28;20083;-70
2023/11/09 00:55:19;;;;;;;1.45;0.60;;;10.20;99.90;;;;;;5069596;28;20048;-70
2023/11/09 00:57:45;;;;;;;1.50;0.50;;;10.10;99.90;;;;;;5069493;28;20497;-70
2023/11/09 01:00:12;;;;;;;1.25;0.45;;;10.10;99.90;;;;;;5069092;28;20075;-70
2023/11/09 01:02:39;;;;;;;1.08;0.73;;;10.20;99.90;;;;;;5067891;28;20051;-70
2023/11/09 01:05:08;;;;;;;1.33;0.38;;;10.10;99.90;;;;;;5067078;28;20509;-70
2023/11/09 01:07:34;;;;;;;1.38;0.70;;;10.10;99.90;;;;;;5070410;28;20051;-70
2023/11/09 01:10:00;;;;;;;0.90;0.73;;;10.10;99.90;;;;;;5071066;28;20526;-70
2023/11/09 01:12:26;;;;;;;0.82;0.60;;;10.20;99.90;;;;;;5082021;28;20033;-70
2023/11/09 01:14:52;;;;;;;0.55;0.32;;;10.10;99.90;;;;;;5071184;28;20371;-70
2023/11/09 01:17:18;;;;;;;0.80;0.43;;;10.20;99.90;;;;;;5067440;28;20076;-70
2023/11/09 01:19:44;;;;;;;0.60;0.40;;;10.20;99.90;;;;;;5070837;28;20060;-70
2023/11/09 01:22:10;;;;;;;1.60;0.60;;;10.20;99.90;;;;;;5069390;28;20494;-70
2023/11/09 01:24:35;;;;;;;1.17;0.47;;;10.20;99.90;;;;;;5068323;28;20082;-70
2023/11/09 01:27:01;;;;;;;0.60;0.45;;;10.20;99.90;;;;;;5069086;28;20107;-70
2023/11/09 01:29:26;;;;;;;0.90;0.43;;;10.30;99.90;;;;;;5049810;28;20044;-70
2023/11/09 01:31:54;;;;;;;0.93;0.73;;;10.20;99.90;;;;;;5052109;28;20047;-70
2023/11/09 01:34:20;;;;;;;0.65;0.45;;;10.10;99.90;;;;;;5063907;28;20057;-70
2023/11/09 01:36:46;;;;;;;2.83;0.95;;;10.20;99.90;;;;;;5069513;28;20455;-70
2023/11/09 01:39:12;;;;;;;1.60;0.70;;;10.50;99.90;;;;;;5069117;28;20093;-70
2023/11/09 01:41:38;;;;;;;0.57;0.50;;;10.90;99.90;;;;;;5067538;28;20036;-70
2023/11/09 01:44:04;;;;;;;1.55;0.60;;;10.20;99.90;;;;;;5067514;28;20106;-70
2023/11/09 01:46:31;;;;;;;1.00;0.50;;;10.20;99.90;;;;;;5069853;28;20036;-70
2023/11/09 01:48:58;;;;;;;1.10;0.60;;;10.20;99.90;;;;;;5066901;28;20413;-70
2023/11/09 01:51:25;;;;;;;2.25;1.38;;;10.20;99.90;;;;;;5070013;28;20101;-70
2023/11/09 01:53:52;;;;;;;1.15;0.55;;;10.20;99.90;;;;;;5069663;28;20068;-70
2023/11/09 01:56:19;;;;;;;0.93;0.40;;;10.20;99.90;;;;;;5068243;28;20039;-70
2023/11/09 01:58:47;;;;;;;6.57;1.10;;;10.20;99.90;;;;;;5066797;28;20132;-70
2023/11/09 02:01:13;;;;;;;1.35;0.73;;;10.30;99.90;;;;;;5070898;28;20047;-70
2023/11/09 02:03:43;;;;;;;1.33;0.57;;;10.20;99.90;;;;;;5100744;27;20052;-70
2023/11/09 02:06:09;;;;;;;1.60;0.55;;;10.20;99.90;;;;;;5067393;28;20041;-70
2023/11/09 02:08:39;;;;;;;0.75;0.52;;;10.20;99.90;;;;;;5068028;28;20044;-70
2023/11/09 02:11:05;;;;;;;0.40;0.40;;;10.20;99.90;;;;;;5069126;28;20041;-70
2023/11/09 02:13:32;;;;;;;1.98;0.40;;;10.50;99.90;;;;;;5098701;28;20041;-70
2023/11/09 02:16:00;;;;;;;0.50;0.40;;;10.20;99.90;;;;;;5081212;28;20037;-70
2023/11/09 02:18:26;;;;;;;1.52;0.40;;;10.20;99.90;;;;;;5087712;28;20044;-70
2023/11/09 02:20:52;;;;;;;0.82;0.70;;;10.20;99.90;;;;;;5068779;28;20086;-70
2023/11/09 02:23:23;;;;;;;2.15;0.50;;;10.10;99.90;;;;;;5067565;28;20087;-70
2023/11/09 02:25:52;;;;;;;0.52;0.50;;;10.20;99.90;;;;;;5067891;28;20055;-70
2023/11/09 02:28:18;;;;;;;0.70;0.40;;;10.20;99.90;;;;;;5067131;28;20044;-70
2023/11/09 02:30:44;;;;;;;1.52;0.57;;;10.20;99.90;;;;;;5067285;28;20043;-70
2023/11/09 02:33:10;;;;;;;0.60;0.43;;;10.20;99.90;;;;;;5067372;28;20052;-70
2023/11/09 02:35:37;;;;;;;1.50;0.70;;;10.20;99.90;;;;;;5066458;28;20105;-70
2023/11/09 02:38:03;;;;;;;0.60;0.50;;;10.20;99.90;;;;;;5066990;28;20085;-69
2023/11/09 02:40:29;;;;;;;0.80;0.60;;;10.10;99.90;;;;;;5068197;28;20386;-70
2023/11/09 02:42:56;;;;;;;0.73;0.70;;;10.20;99.90;;;;;;5067116;28;20032;-70
2023/11/09 02:45:21;;;;;;;0.82;0.70;;;10.20;99.90;;;;;;5069515;28;20399;-70
2023/11/09 02:47:47;;;;;;;1.83;0.80;;;10.20;99.90;;;;;;5067357;28;20037;-70
2023/11/09 02:50:14;;;;;;;1.77;0.93;;;10.20;99.90;;;;;;5066652;28;20036;-70
2023/11/09 02:52:40;;;;;;;1.02;0.60;;;10.20;99.90;;;;;;5065215;28;20052;-70
2023/11/09 02:55:06;;;;;;;1.05;0.80;;;10.20;99.90;;;;;;5068318;28;20048;-70
2023/11/09 02:57:31;;;;;;;0.80;0.60;;;10.20;99.90;;;;;;5065788;28;20397;-70
2023/11/09 02:59:57;;;;;;;0.80;0.73;;;10.30;99.90;;;;;;5067743;28;20036;-69
2023/11/09 03:02:23;;;;;;;1.23;0.80;;;10.20;99.90;;;;;;5066188;28;20044;-70
2023/11/09 03:04:48;;;;;;;0.90;0.80;;;10.20;99.90;;;;;;5068014;28;20044;-70
2023/11/09 03:07:14;;;;;;;0.70;0.60;;;10.20;99.90;;;;;;5068804;28;20518;-70
2023/11/09 03:09:44;;;;;;;0.70;0.60;;;10.20;99.90;;;;;;5066854;28;20040;-70
2023/11/09 03:12:10;;;;;;;1.90;0.73;;;10.10;99.90;;;;;;5066428;28;20095;-70
2023/11/09 03:14:36;;;;;;;0.80;0.73;;;10.10;99.90;;;;;;5067223;28;20399;-70
2023/11/09 03:17:06;;;;;;;0.80;0.65;;;10.20;99.90;;;;;;5066918;28;20544;-70
2023/11/09 03:19:32;;;;;;;0.80;0.60;;;10.10;99.90;;;;;;5065265;28;20478;-70
2023/11/09 03:21:58;;;;;;;0.82;0.60;;;10.10;99.90;;;;;;5068952;28;20582;-70
2023/11/09 03:24:24;;;;;;;1.17;0.60;;;10.10;99.90;;;;;;5099664;28;20055;-70
2023/11/09 03:26:50;;;;;;;0.73;0.60;;;10.20;99.90;;;;;;5064954;28;20095;-70
2023/11/09 03:29:15;;;;;;;0.82;0.60;;;10.20;99.90;;;;;;5048277;28;20055;-70
2023/11/09 03:31:41;;;;;;;1.65;0.57;;;10.10;99.90;;;;;;5068508;28;20398;-70
2023/11/09 03:34:07;;;;;;;1.30;0.65;;;10.20;99.90;;;;;;5067718;28;20094;-70
2023/11/09 03:36:32;;;;;;;0.90;0.60;;;10.20;99.90;;;;;;5069660;28;20426;-70
2023/11/09 03:38:58;;;;;;;0.95;0.73;;;10.20;99.90;;;;;;5066559;28;20044;-70
2023/11/09 03:41:23;;;;;;;1.80;0.70;;;10.20;99.90;;;;;;5068898;28;20036;-70
2023/11/09 03:43:49;;;;;;;1.40;0.70;;;10.20;99.90;;;;;;5063483;28;20050;-70
2023/11/09 03:46:14;;;;;;;1.08;0.70;;;10.10;99.90;;;;;;5066886;28;20387;-70
2023/11/09 03:48:41;;;;;;;0.70;0.40;;;10.10;99.90;;;;;;5066911;28;20075;-70
2023/11/09 03:51:07;;;;;;;0.93;0.63;;;10.20;99.90;;;;;;5071996;28;20036;-70
2023/11/09 03:53:32;;;;;;;1.17;0.65;;;10.20;99.90;;;;;;5070021;28;20077;-70
2023/11/09 03:55:58;;;;;;;0.77;0.70;;;10.20;99.90;;;;;;5069621;28;20542;-70
2023/11/09 03:58:24;;;;;;;1.13;0.60;;;10.20;99.90;;;;;;5099610;28;20037;-70
2023/11/09 04:00:49;;;;;;;1.15;0.65;;;10.20;99.90;;;;;;5070602;28;20079;-70
2023/11/09 04:03:15;;;;;;;1.17;0.70;;;10.20;99.90;;;;;;5071735;28;20146;-70
2023/11/09 04:05:41;;;;;;;0.50;0.47;;;10.20;99.90;;;;;;5067822;28;20040;-70
2023/11/09 04:08:06;;;;;;;0.40;0.40;;;10.10;99.90;;;;;;5067628;28;20051;-70
2023/11/09 04:10:32;;;;;;;1.15;0.65;;;10.20;99.90;;;;;;5069482;28;20332;-70
2023/11/09 04:12:58;;;;;;;1.23;0.57;;;10.20;99.90;;;;;;5068781;28;20059;-70
2023/11/09 04:15:23;;;;;;;1.00;0.52;;;10.20;99.90;;;;;;5070967;28;20032;-70
2023/11/09 04:17:49;;;;;;;1.27;0.70;;;10.20;99.90;;;;;;5067418;28;20120;-70
2023/11/09 04:20:16;;;;;;;0.70;0.60;;;10.20;99.90;;;;;;5065482;28;20119;-70
2023/11/09 04:22:43;;;;;;;0.70;0.50;;;10.20;99.90;;;;;;5068261;28;20412;-70
2023/11/09 04:25:10;;;;;;;0.70;0.70;;;10.20;99.90;;;;;;5069744;28;20415;-70
2023/11/09 04:27:37;;;;;;;0.82;0.82;;;10.20;99.90;;;;;;5068556;28;20040;-70
2023/11/09 04:30:09;;;;;;;1.30;1.20;;;10.30;99.90;;;;;;5069227;28;20506;-70
2023/11/09 04:32:34;;;;;;;1.73;1.50;;;10.30;99.90;;;;;;5070068;28;20497;-70
2023/11/09 04:35:00;;;;;;;1.38;1.27;;;10.20;99.90;;;;;;5066276;28;20123;-70
2023/11/09 04:37:25;;;;;;;1.90;1.80;;;10.20;99.90;;;;;;5069060;28;20394;-70
2023/11/09 04:39:57;;;;;;;1.67;1.48;;;10.20;99.90;;;;;;5050154;28;20052;-70
2023/11/09 04:42:29;;;;;;;1.98;1.88;;;10.30;99.90;;;;;;5084407;28;20048;-70
2023/11/09 04:44:56;;;;;;;3.38;2.25;;;10.30;99.90;;;;;;5070189;28;20040;-70
2023/11/09 04:47:25;;;;;;;2.67;2.47;;;10.20;99.90;;;;;;5069976;28;20139;-70
2023/11/09 04:49:58;;;;;;;2.35;2.20;;;10.30;99.90;;;;;;5099940;28;20047;-69
2023/11/09 04:52:26;;;;;;;3.10;2.65;;;10.30;99.90;;;;;;5099899;28;20045;-69
2023/11/09 04:55:12;;;;;;;2.75;2.35;;;10.30;99.90;;;;;;5045077;28;20053;-69
2023/11/09 05:08:43;;;;;;;4.30;3.92;;;10.30;99.90;;;;;;5065249;28;20487;-69
2023/11/09 05:11:11;;;;;;;4.45;4.15;;;10.30;99.90;;;;;;5070400;28;20045;-69
2023/11/09 05:13:37;;;;;;;5.38;4.88;;;10.30;99.90;;;;;;5067184;28;20040;-69
2023/11/09 05:16:03;;;;;;;4.78;4.38;;;10.30;99.90;;;;;;5065894;28;20632;-69
2023/11/09 05:18:28;;;;;;;5.30;4.90;;;10.30;99.90;;;;;;5070206;28;20118;-69
2023/11/09 05:20:55;;;;;;;5.68;5.18;;;10.30;99.90;;;;;;5069004;28;20159;-69
2023/11/09 05:23:20;;;;;;;5.68;5.25;;;10.40;99.90;;;;;;5067619;28;20052;-69
2023/11/09 05:25:46;;;;;;;5.55;5.15;;;10.40;99.90;;;;;;5069097;28;20039;-69
2023/11/09 05:28:12;;;;;;;5.47;5.07;;;10.40;99.90;;;;;;5067930;28;20137;-69
2023/11/09 05:30:38;;;;;;;5.60;5.10;;;10.40;99.90;;;;;;5062555;28;20121;-69
2023/11/09 05:33:04;;;;;;;6.18;5.68;;;10.40;99.90;;;;;;5067394;28;20044;-69
2023/11/09 05:35:30;;;;;;;5.57;5.07;;;10.60;99.90;;;;;;5069683;28;20499;-69
2023/11/09 05:37:57;;;;;;;5.40;4.90;;;10.50;99.90;;;;;;5067734;28;20056;-70
2023/11/09 05:40:22;;;;;;;5.20;4.70;;;10.40;99.90;;;;;;5060271;28;20052;-70
2023/11/09 05:42:48;;;;;;;4.40;4.00;;;10.40;99.90;;;;;;5065950;28;20040;-69
2023/11/09 05:45:14;;;;;;;4.50;4.10;;;10.40;99.90;;;;;;5067048;28;20440;-69
2023/11/09 05:47:40;;;;;;;3.88;3.58;;;10.30;99.90;;;;;;5067136;28;20040;-70
2023/11/09 05:50:08;;;;;;;4.55;4.15;;;10.40;99.90;;;;;;5068681;28;20085;-70
2023/11/09 05:52:33;;;;;;;5.90;3.80;;;10.40;99.90;;;;;;5098885;28;20491;-70
2023/11/09 05:54:59;;;;;;;3.83;3.40;;;10.30;99.90;;;;;;5097956;28;20044;-69
2023/11/09 05:57:25;;;;;;;2.55;2.38;;;10.40;99.90;;;;;;5067812;28;20040;-70
2023/11/09 05:59:51;;;;;;;4.22;2.92;;;10.30;99.90;;;;;;5066955;28;20511;-70
2023/11/09 06:02:16;;;;;;;3.38;3.08;;;10.40;99.90;;;;;;5099495;28;20039;-70
2023/11/09 06:04:42;;;;;;;2.85;2.65;;;10.30;99.90;;;;;;5067129;28;20037;-70
2023/11/09 06:07:11;;;;;;;3.28;2.92;;;10.30;99.90;;;;;;5068225;28;20536;-69
2023/11/09 06:09:38;;;;;;;3.05;2.75;;;10.30;99.90;;;;;;5064454;28;20044;-69
2023/11/09 06:12:09;;;;;;;3.30;3.00;;;10.30;99.90;;;;;;5068980;28;20040;-70
2023/11/09 06:14:35;;;;;;;9.20;3.67;;;10.20;99.90;;;;;;5098706;28;20127;-70
2023/11/09 06:17:01;;;;;;;6.22;3.58;;;10.20;99.90;;;;;;5084613;28;20059;-70
2023/11/09 06:19:28;;;;;;;9.68;3.50;;;10.20;99.90;;;;;;5068625;28;20726;-70
2023/11/09 06:21:56;;;;;;;9.35;3.40;;;10.20;99.90;;;;;;5068998;28;20123;-70
2023/11/09 06:24:22;;;;;;;16.15;3.00;;;10.10;99.90;;;;;;5066677;28;20040;-70
2023/11/09 06:26:51;;;;;;;7.68;1.98;;;10.10;99.90;;;;;;5069701;28;20115;-70
2023/11/09 06:29:16;;;;;;;10.75;2.70;;;10.10;99.90;;;;;;5081401;28;20117;-69
2023/11/09 06:31:43;;;;;;;13.68;2.78;;;10.00;99.90;;;;;;5066008;28;20482;-69
2023/11/09 06:34:14;;;;;;;14.82;2.90;;;9.90;99.90;;;;;;5050395;28;20044;-69
2023/11/09 06:36:43;;;;;;;16.65;2.53;;;9.90;99.90;;;;;;5067759;28;20129;-70
2023/11/09 06:39:14;;;;;;;14.65;2.53;;;9.80;99.90;;;;;;5065778;28;20055;-69
2023/11/09 06:41:39;;;;;;;15.75;2.10;;;9.80;99.90;;;;;;5065276;28;20029;-69
2023/11/09 06:44:05;;;;;;;13.70;2.40;;;10.00;99.90;;;;;;5066488;28;20414;-69
2023/11/09 06:46:31;;;;;;;13.63;2.28;;;9.80;99.90;;;;;;5069847;28;20040;-69
2023/11/09 06:48:57;;;;;;;17.60;3.53;;;9.70;99.90;;;;;;5066548;28;20048;-70
2023/11/09 06:51:23;;;;;;;14.10;2.63;;;9.70;99.90;;;;;;5053159;28;20036;-70
2023/11/09 06:53:50;;;;;;;11.80;2.25;;;9.70;99.90;;;;;;5068329;28;20394;-70
2023/11/09 06:56:17;;;;;;;13.50;2.25;;;9.60;99.90;;;;;;5063712;28;20130;-70
2023/11/09 06:58:42;;;;;;;11.95;2.13;;;9.60;99.90;;;;;;5063538;28;20032;-69
2023/11/09 07:01:08;;;;;;;11.57;2.28;;;9.60;99.90;;;;;;5067899;28;20063;-69
2023/11/09 07:03:33;;;;;;;14.80;1.70;;;9.60;99.90;;;;;;5063282;28;20036;-69
2023/11/09 07:05:59;;;;;;;9.00;1.67;;;9.50;99.90;;;;;;5068691;28;20124;-69
2023/11/09 07:08:28;;;;;;;10.65;1.60;;;9.60;99.90;;;;;;5066866;28;20040;-69
2023/11/09 07:10:54;;;;;;;14.10;2.30;;;9.60;99.90;;;;;;5068096;28;20043;-69
2023/11/09 07:13:20;;;;;;;12.77;1.80;;;9.50;99.90;;;;;;5062815;28;20049;-70
2023/11/09 07:15:47;;;;;;;13.02;2.10;;;9.60;99.90;;;;;;5097099;28;20046;-69
2023/11/09 07:18:14;;;;;;;14.15;2.63;;;9.60;99.90;;;;;;5063620;28;20044;-70
2023/11/09 07:20:41;;;;;;;11.77;2.25;;;9.50;99.90;;;;;;5066130;28;20040;-70
2023/11/09 07:23:07;;;;;;;13.60;2.67;;;9.50;99.90;;;;;;5070897;28;20062;-69
2023/11/09 07:25:36;;;;;;;8.70;1.75;;;9.50;99.90;;;;;;5069512;28;20535;-70
2023/11/09 07:28:03;;;;;;;15.25;1.77;;;9.40;99.90;;;;;;5071732;28;20102;-69
2023/11/09 07:30:31;;;;;;;13.93;2.38;;;9.50;99.90;;;;;;5068925;28;20058;-69
2023/11/09 07:33:03;;;;;;;11.10;2.63;;;9.50;99.90;;;;;;5063597;28;20139;-69
2023/11/09 07:35:29;;;;;;;12.00;2.00;;;9.50;99.90;;;;;;5068434;28;20040;-69
2023/11/09 07:37:58;;;;;;;11.52;2.13;;;9.50;99.90;;;;;;5068245;28;20040;-70
2023/11/09 07:40:27;;;;;;;15.40;2.30;;;9.50;99.90;;;;;;5068635;28;20044;-69
2023/11/09 07:42:52;;;;;;;13.90;3.28;;;9.50;99.90;;;;;;5070330;28;20072;-69
2023/11/09 07:45:18;;;;;;;11.10;2.90;;;9.50;99.90;;;;;;5063836;28;20896;-70
2023/11/09 07:47:45;;;;;;;14.20;2.75;;;9.50;99.90;;;;;;5068158;28;20731;-69
2023/11/09 07:50:13;;;;;;;13.75;2.30;;;9.50;99.90;;;;;;5066841;28;20436;-69
2023/11/09 07:52:40;;;;;;;10.23;2.17;;;9.50;99.90;;;;;;5052392;28;20058;-69
2023/11/09 07:55:07;;;;;;;8.52;1.88;;;9.40;99.90;;;;;;5066164;28;20508;-69
2023/11/09 07:57:34;;;;;;;13.65;3.00;;;9.50;99.90;;;;;;5068802;28;20534;-69
2023/11/09 08:00:01;;;;;;;17.23;2.33;;;9.50;99.90;;;;;;5069083;28;20453;-70
2023/11/09 08:02:28;;;;;;;19.58;3.50;;;9.50;99.90;;;;;;5065486;28;20398;-69
2023/11/09 08:04:57;;;;;;;12.05;2.40;;;9.50;99.90;;;;;;5069655;28;20486;-69
2023/11/09 08:07:23;;;;;;;12.25;2.42;;;9.50;99.90;;;;;;5068530;28;20117;-70
2023/11/09 08:09:49;;;;;;;15.43;2.97;;;9.50;99.90;;;;;;5069665;28;20052;-69
2023/11/09 08:12:15;;;;;;;11.35;2.08;;;9.60;99.90;;;;;;5068598;28;20052;-69
2023/11/09 08:14:42;;;;;;;12.52;2.45;;;9.60;99.90;;;;;;5068320;28;20043;-70
2023/11/09 08:17:11;;;;;;;13.77;2.88;;;9.60;99.90;;;;;;5068747;28;20040;-69
2023/11/09 08:19:36;;;;;;;9.85;2.33;;;9.60;99.90;;;;;;5068584;28;20043;-70
2023/11/09 08:22:03;;;;;;;13.02;2.08;;;9.60;99.90;;;;;;5069978;28;20036;-70
2023/11/09 08:24:29;;;;;;;9.55;2.38;;;9.70;99.90;;;;;;5067561;28;20083;-70
2023/11/09 08:26:55;;;;;;;11.18;1.80;;;9.70;99.90;;;;;;5066946;28;20044;-70
2023/11/09 08:29:20;;;;;;;13.27;1.85;;;9.70;99.90;;;;;;5067990;28;20048;-70
2023/11/09 08:31:47;;;;;;;8.55;1.80;;;9.80;99.90;;;;;;5069655;28;20041;-70
2023/11/09 08:34:16;;;;;;;10.13;1.77;;;9.80;99.90;;;;;;5065063;28;20048;-70
2023/11/09 08:36:42;;;;;;;6.90;1.40;;;9.90;99.90;;;;;;5067455;28;20040;-70
2023/11/09 08:39:17;;;;;;;10.88;2.28;;;9.90;99.90;;;;;;5068320;28;20379;-70
2023/11/09 08:41:42;;;;;;;9.23;1.65;;;10.00;99.90;;;;;;5067917;28;20040;-70
2023/11/09 08:44:09;;;;;;;7.13;2.28;;;10.10;99.90;;;;;;5067783;28;20053;-69
2023/11/09 08:46:36;;;;;;;9.07;1.98;;;10.00;99.90;;;;;;5070251;28;20434;-69
2023/11/09 08:49:03;;;;;;;11.98;2.45;;;10.00;99.90;;;;;;5069706;28;20071;-69
2023/11/09 08:51:28;;;;;;;13.35;2.00;;;10.10;99.90;;;;;;5072118;28;20083;-69
2023/11/09 08:53:54;;;;;;;8.90;1.65;;;10.00;99.90;;;;;;5070137;28;20505;-70
2023/11/09 08:56:21;;;;;;;10.45;2.45;;;10.00;99.90;;;;;;5067436;28;20146;-70
2023/11/09 08:58:48;;;;;;;9.57;1.77;;;10.00;99.90;;;;;;5067268;28;20123;-69
2023/11/09 09:01:17;;;;;;;9.15;2.53;;;10.00;99.90;;;;;;5068678;28;20609;-70
2023/11/09 09:03:50;;;;;;;9.05;2.10;;;10.10;99.90;;;;;;5099006;28;20044;-70
2023/11/09 09:06:17;;;;;;;6.28;1.58;;;10.10;99.90;;;;;;5071445;28;20098;-70
2023/11/09 09:08:45;;;;;;;9.73;2.10;;;10.10;99.90;;;;;;5100982;28;20052;-70
2023/11/09 09:11:12;;;;;;;7.20;2.10;;;10.10;99.90;;;;;;5067388;28;20114;-70
2023/11/09 09:13:38;;;;;;;6.90;1.92;;;10.50;99.90;;;;;;5067298;28;20083;-70
2023/11/09 09:16:06;;;;;;;11.30;2.38;;;10.20;99.90;;;;;;5068724;28;20123;-70
2023/11/09 09:18:31;;;;;;;12.65;2.58;;;10.20;99.90;;;;;;5066156;28;20040;-70
2023/11/09 09:20:57;;;;;;;10.13;2.38;;;10.40;99.90;;;;;;5067737;28;20041;-70
2023/11/09 09:23:23;;;;;;;9.52;3.08;;;10.30;99.90;;;;;;5068387;28;20064;-70
2023/11/09 09:25:49;;;;;;;12.52;2.80;;;10.30;99.90;;;;;;5066951;28;20048;-70
2023/11/09 09:28:14;;;;;;;8.68;2.58;;;10.30;99.90;;;;;;5069122;28;20501;-70
2023/11/09 09:30:40;;;;;;;12.05;4.13;;;10.50;99.90;;;;;;5069113;28;20039;-70
2023/11/09 09:33:07;;;;;;;13.57;4.15;;;10.40;99.90;;;;;;5069631;28;20452;-70
2023/11/09 09:35:33;;;;;;;9.50;3.92;;;10.40;99.90;;;;;;5068811;28;20504;-70
2023/11/09 09:37:59;;;;;;;8.57;4.25;;;10.40;99.90;;;;;;5067332;28;20906;-70
2023/11/09 09:40:29;;;;;;;11.05;4.45;;;10.50;99.90;;;;;;5064517;28;20052;-70
2023/11/09 09:42:56;;;;;;;12.07;4.72;;;10.50;99.90;;;;;;5069472;28;20037;-70
2023/11/09 09:45:32;;;;;;;8.27;4.10;;;10.70;99.90;;;;;;5068311;28;20040;-70
2023/11/09 09:48:01;;;;;;;8.57;4.03;;;10.70;99.90;;;;;;5050961;28;20041;-70
2023/11/09 09:50:34;;;;;;;13.15;4.32;;;11.00;99.90;;;;;;5066483;28;20040;-70
2023/11/09 09:53:02;;;;;;;12.02;3.60;;;10.80;99.90;;;;;;5067620;28;20055;-70
2023/11/09 09:55:28;;;;;;;9.00;3.80;;;10.90;99.90;;;;;;5098335;28;20040;-70
2023/11/09 09:57:59;;;;;;;10.80;3.17;;;10.80;99.90;;;;;;5065926;28;20044;-70
2023/11/09 10:00:28;;;;;;;6.95;2.92;;;10.80;99.90;;;;;;5066030;28;20115;-70
2023/11/09 10:02:57;;;;;;;11.68;3.40;;;10.80;99.90;;;;;;5066693;28;20043;-70
2023/11/09 10:05:24;;;;;;;8.00;3.08;;;10.80;99.90;;;;;;5068434;28;20505;-70
2023/11/09 10:08:13;;;;;;;7.63;2.90;;;10.70;99.90;;;;;;5066228;28;20051;-70
2023/11/09 10:10:50;;;;;;;7.72;2.92;;;10.70;99.90;;;;;;5067880;28;20391;-70
2023/11/09 10:13:18;;;;;;;10.65;2.72;;;10.90;99.90;;;;;;5096779;28;20123;-70
2023/11/09 10:15:45;;;;;;;8.77;3.30;;;10.80;99.90;;;;;;5068483;28;20427;-70
2023/11/09 10:18:12;;;;;;;10.82;2.50;;;10.70;99.90;;;;;;5065344;28;20039;-70
2023/11/09 10:20:58;;;;;;;8.55;3.13;;;10.70;99.90;;;;;;5065584;28;20047;-70
2023/11/09 10:23:28;;;;;;;11.25;3.10;;;10.70;99.90;;;;;;5068837;28;20494;-70
2023/11/09 10:26:04;;;;;;;8.90;2.55;;;10.80;99.90;;;;;;5070434;28;20450;-70
2023/11/09 10:28:32;;;;;;;12.52;3.13;;;10.90;99.90;;;;;;5067887;28;20527;-70
2023/11/09 10:30:57;;;;;;;8.38;2.70;;;11.10;99.90;;;;;;5069791;28;20033;-70
2023/11/09 10:33:23;;;;;;;11.77;1.95;;;11.10;99.90;;;;;;5068282;28;20078;-70
2023/11/09 10:35:49;;;;;;;10.18;2.70;;;11.10;99.90;;;;;;5068996;28;20096;-70
2023/11/09 10:38:20;;;;;;;11.60;2.42;;;11.20;99.90;;;;;;5071332;28;20431;-70
2023/11/09 10:40:48;;;;;;;10.27;2.22;;;11.30;99.90;;;;;;5070566;28;20036;-70
2023/11/09 10:43:15;;;;;;;9.00;2.30;;;11.30;99.90;;;;;;5070611;28;20493;-70
2023/11/09 10:45:45;;;;;;;13.57;3.05;;;11.30;99.90;;;;;;5067289;28;20040;-70
2023/11/09 10:48:18;;;;;;;10.30;2.80;;;11.40;99.90;;;;;;5067555;28;20044;-70
2023/11/09 10:50:47;;;;;;;12.52;2.03;;;11.40;99.90;;;;;;5067580;28;20044;-70
2023/11/09 10:53:20;;;;;;;15.05;2.70;;;11.50;99.90;;;;;;5066170;28;20045;-70
2023/11/09 10:55:53;;;;;;;9.48;1.92;;;11.50;99.90;;;;;;5069311;28;20040;-70
2023/11/09 10:58:23;;;;;;;8.75;2.15;;;11.60;99.90;;;;;;5064725;28;20119;-70
2023/11/09 11:00:58;;;;;;;11.15;3.50;;;11.70;99.90;;;;;;5068732;28;20040;-70
2023/11/09 11:03:37;;;;;;;11.90;2.37;;;11.80;99.90;;;;;;5098547;28;20115;-70
2023/11/09 11:06:09;;;;;;;11.93;3.30;;;12.10;99.90;;;;;;5069437;28;20363;-70
2023/11/09 11:08:41;;;;;;;8.00;2.05;;;12.00;99.90;;;;;;5066828;28;20048;-70
2023/11/09 11:11:13;;;;;;;6.20;1.63;;;12.00;99.90;;;;;;5066783;28;20532;-70
2023/11/09 11:13:43;;;;;;;9.63;2.42;;;12.40;99.90;;;;;;5061402;28;20048;-69
2023/11/09 11:16:16;;;;;;;14.52;2.95;;;12.10;99.90;;;;;;5067086;28;20041;-70
2023/11/09 11:19:07;;;;;;;13.73;3.40;;;12.10;99.90;;;;;;5067468;28;20044;-70
2023/11/09 11:21:42;;;;;;;10.20;2.22;;;12.30;99.90;;;;;;5066283;28;20612;-70
2023/11/09 11:24:43;;;;;;;11.38;1.80;;;12.40;99.90;;;;;;5063613;28;20119;-70
2023/11/09 11:27:34;;;;;;;13.65;2.47;;;12.50;99.90;;;;;;5028826;28;20108;-70
2023/11/09 11:30:13;;;;;;;11.77;2.22;;;12.60;99.90;;;;;;5066006;28;20415;-71
2023/11/09 11:32:38;;;;;;;9.30;2.08;;;12.70;99.90;;;;;;5099420;28;20130;-70
2023/11/09 11:35:06;;;;;;;13.40;2.35;;;12.70;99.90;;;;;;5048840;28;20082;-70
2023/11/09 11:37:33;;;;;;;16.13;2.67;;;12.60;99.90;;;;;;5064923;28;20127;-70
2023/11/09 11:40:05;;;;;;;12.93;2.42;;;12.60;99.90;;;;;;5065414;28;20052;-70
2023/11/09 11:42:33;;;;;;;9.93;2.10;;;12.70;99.90;;;;;;5067954;28;20079;-70
2023/11/09 11:45:02;;;;;;;11.27;2.90;;;12.60;99.90;;;;;;5067623;28;20054;-70
2023/11/09 11:47:29;;;;;;;11.95;2.15;;;12.60;99.90;;;;;;5096337;28;20063;-71
2023/11/09 11:49:59;;;;;;;13.27;2.72;;;12.60;99.90;;;;;;5071509;28;20033;-70
2023/11/09 11:52:25;;;;;;;11.95;2.45;;;12.60;99.90;;;;;;5068364;28;20044;-70
2023/11/09 11:54:51;;;;;;;8.60;2.10;;;12.50;99.90;;;;;;5064514;28;20045;-70
2023/11/09 11:57:18;;;;;;;13.98;2.67;;;12.40;99.90;;;;;;5068871;28;20040;-70
2023/11/09 11:59:45;;;;;;;9.52;2.25;;;12.30;99.90;;;;;;5069881;28;20393;-70
2023/11/09 12:02:14;;;;;;;12.05;2.45;;;12.20;99.90;;;;;;5069333;28;20063;-70
2023/11/09 12:04:49;;;;;;;14.55;2.63;;;12.10;99.90;;;;;;5071023;28;20048;-70
2023/11/09 12:07:19;;;;;;;8.40;2.08;;;12.00;99.90;;;;;;5067538;28;20037;-70
2023/11/09 12:09:46;;;;;;;16.80;3.83;;;12.00;99.90;;;;;;5070226;28;20044;-70
2023/11/09 12:12:12;;;;;;;10.00;2.17;;;12.00;99.90;;;;;;5071986;28;20044;-70
2023/11/09 12:14:40;;;;;;;12.05;2.67;;;12.00;99.90;;;;;;5071973;28;20597;-70
2023/11/09 12:17:05;;;;;;;11.60;2.25;;;12.10;99.90;;;;;;5073510;28;20037;-70
2023/11/09 12:19:33;;;;;;;11.15;2.80;;;12.00;99.90;;;;;;5073389;28;20816;-70
2023/11/09 12:22:01;;;;;;;14.55;3.10;;;11.90;99.90;;;;;;5071222;28;20064;-70
2023/11/09 12:24:28;;;;;;;10.88;2.38;;;12.20;99.90;;;;;;5071367;28;20048;-70
2023/11/09 12:27:08;;;;;;;10.30;2.47;;;12.00;99.90;;;;;;5072047;28;20062;-70
2023/11/09 12:29:38;;;;;;;15.20;2.85;;;11.80;99.90;;;;;;5073691;28;20375;-70
2023/11/09 12:32:06;;;;;;;11.80;1.95;;;11.80;99.90;;;;;;5070041;28;20052;-70
2023/11/09 12:34:35;;;;;;;13.60;2.58;;;11.80;99.90;;;;;;5066950;28;20081;-70
2023/11/09 12:37:01;;;;;;;9.52;2.08;;;11.80;99.90;;;;;;5072819;28;20047;-70
2023/11/09 12:39:30;;;;;;;9.27;2.22;;;11.70;99.90;;;;;;5073599;28;20032;-70
2023/11/09 12:41:57;;;;;;;9.48;1.95;;;11.70;99.90;;;;;;5074222;28;20081;-70
2023/11/09 12:44:24;;;;;;;10.02;2.60;;;11.70;99.90;;;;;;5072728;28;20146;-70
2023/11/09 12:46:56;;;;;;;10.77;2.08;;;11.70;99.90;;;;;;5073081;28;20486;-70
2023/11/09 12:49:31;;;;;;;10.23;2.50;;;11.80;99.90;;;;;;5065074;28;20040;-70
2023/11/09 12:51:58;;;;;;;9.75;2.58;;;11.60;99.90;;;;;;5070007;28;20047;-69
2023/11/09 12:54:24;;;;;;;9.52;1.63;;;11.90;99.90;;;;;;5071473;28;20040;-70
2023/11/09 12:56:55;;;;;;;14.30;2.92;;;11.60;99.90;;;;;;5071426;28;20037;-70
2023/11/09 12:59:25;;;;;;;10.25;2.55;;;11.60;99.90;;;;;;5071307;28;20133;-70